sensor_id;sensor_type;location;lat;lon;timestamp;pressure;altitude;pressure_sealevel;temperature;humidity
38054;BME280;23859;50.672;7.164;2022-12-18T00:01:15;102060.63;;;-4.29;96.84
38054;BME280;23859;50.672;7.164;2022-12-18T00:03:41;102067.56;;;-4.30;97.13
38054;BME280;23859;50.672;7.164;2022-12-18T00:06:08;102066.75;;;-4.39;97.94
38054;BME280;23859;50.672;7.164;2022-12-18T00:08:35;102060.69;;;-4.38;96.98
38054;BME280;23859;50.672;7.164;2022-12-18T00:11:05;102063.34;;;-4.47;97.75
38054;BME280;23859;50.672;7.164;2022-12-18T00:13:32;102064.16;;;-4.44;97.75
38054;BME280;23859;50.672;7.164;2022-12-18T00:16:03;102057.28;;;-4.48;98.01
38054;BME280;23859;50.672;7.164;2022-12-18T00:18:29;102052.97;;;-4.46;97.66
38054;BME280;23859;50.672;7.164;2022-12-18T00:20:59;102058.91;;;-4.30;96.93
38054;BME280;23859;50.672;7.164;2022-12-18T00:23:26;102063.31;;;-4.44;97.41
38054;BME280;23859;50.672;7.164;2022-12-18T00:25:52;102059.88;;;-4.49;97.54
38054;BME280;23859;50.672;7.164;2022-12-18T00:28:18;102065.03;;;-4.43;97.53
38054;BME280;23859;50.672;7.164;2022-12-18T00:30:45;101940.22;;;-5.26;97.90
38054;BME280;23859;50.672;7.164;2022-12-18T00:33:11;102062.53;;;-4.61;97.81
38054;BME280;23859;50.672;7.164;2022-12-18T00:35:37;102067.69;;;-4.60;98.34
38054;BME280;23859;50.672;7.164;2022-12-18T00:38:03;102063.38;;;-4.62;98.27
38054;BME280;23859;50.672;7.164;2022-12-18T00:40:29;102059.06;;;-4.54;97.62
38054;BME280;23859;50.672;7.164;2022-12-18T00:42:55;102054.69;;;-4.43;97.50
38054;BME280;23859;50.672;7.164;2022-12-18T00:45:25;102050.41;;;-4.52;97.49
38054;BME280;23859;50.672;7.164;2022-12-18T00:47:51;102052.97;;;-4.50;97.98
38054;BME280;23859;50.672;7.164;2022-12-18T00:50:18;102063.31;;;-4.44;97.72
38054;BME280;23859;50.672;7.164;2022-12-18T00:52:44;102058.09;;;-4.37;97.38
38054;BME280;23859;50.672;7.164;2022-12-18T00:55:11;102071.88;;;-4.27;96.69
38054;BME280;23859;50.672;7.164;2022-12-18T00:57:37;102076.22;;;-4.31;96.82
38054;BME280;23859;50.672;7.164;2022-12-18T01:00:05;102071.88;;;-4.30;96.23
38054;BME280;23859;50.672;7.164;2022-12-18T01:02:31;102067.59;;;-4.31;96.02
38054;BME280;23859;50.672;7.164;2022-12-18T01:04:57;102061.47;;;-4.24;95.77
38054;BME280;23859;50.672;7.164;2022-12-18T01:07:23;102065.81;;;-4.25;95.85
38054;BME280;23859;50.672;7.164;2022-12-18T01:09:49;102065.78;;;-4.19;95.81
38054;BME280;23859;50.672;7.164;2022-12-18T01:12:15;102060.66;;;-4.32;96.32
38054;BME280;23859;50.672;7.164;2022-12-18T01:14:42;102064.16;;;-4.41;96.31
38054;BME280;23859;50.672;7.164;2022-12-18T01:17:08;102065.84;;;-4.35;96.04
38054;BME280;23859;50.672;7.164;2022-12-18T01:19:34;102054.59;;;-4.28;96.02
38054;BME280;23859;50.672;7.164;2022-12-18T01:22:00;102056.28;;;-4.21;95.60
38054;BME280;23859;50.672;7.164;2022-12-18T01:24:26;102054.50;;;-4.10;94.38
38054;BME280;23859;50.672;7.164;2022-12-18T01:26:52;102063.13;;;-4.14;94.30
38054;BME280;23859;50.672;7.164;2022-12-18T01:29:18;102058.03;;;-4.26;94.96
38054;BME280;23859;50.672;7.164;2022-12-18T01:31:44;102054.56;;;-4.27;95.30
38054;BME280;23859;50.672;7.164;2022-12-18T01:34:10;102056.25;;;-4.18;95.05
38054;BME280;23859;50.672;7.164;2022-12-18T01:36:38;102059.78;;;-4.33;95.32
38054;BME280;23859;50.672;7.164;2022-12-18T01:39:07;102050.22;;;-4.20;94.71
38054;BME280;23859;50.672;7.164;2022-12-18T01:41:34;102045.91;;;-4.24;93.92
38054;BME280;23859;50.672;7.164;2022-12-18T01:44:57;102050.28;;;-4.35;94.19
38054;BME280;23859;50.672;7.164;2022-12-18T01:47:45;102057.28;;;-4.45;95.57
38054;BME280;23859;50.672;7.164;2022-12-18T01:50:23;102068.47;;;-4.38;94.85
38054;BME280;23859;50.672;7.164;2022-12-18T01:52:53;102064.25;;;-4.56;95.55
38054;BME280;23859;50.672;7.164;2022-12-18T01:55:22;102059.91;;;-4.54;95.39
38054;BME280;23859;50.672;7.164;2022-12-18T01:57:55;102063.38;;;-4.62;95.90
38054;BME280;23859;50.672;7.164;2022-12-18T02:00:23;102055.59;;;-4.58;94.88
38054;BME280;23859;50.672;7.164;2022-12-18T02:02:50;102054.81;;;-4.70;95.69
38054;BME280;23859;50.672;7.164;2022-12-18T02:05:19;102049.66;;;-4.77;96.10
38054;BME280;23859;50.672;7.164;2022-12-18T02:07:54;102053.09;;;-4.74;95.58
38054;BME280;23859;50.672;7.164;2022-12-18T02:10:43;102043.63;;;-4.82;95.61
38054;BME280;23859;50.672;7.164;2022-12-18T02:16:13;102052.31;;;-4.92;96.54
38054;BME280;23859;50.672;7.164;2022-12-18T02:18:47;102048.00;;;-5.04;97.10
38054;BME280;23859;50.672;7.164;2022-12-18T02:21:48;102046.31;;;-5.12;96.76
38054;BME280;23859;50.672;7.164;2022-12-18T02:24:46;102053.25;;;-5.19;97.50
38054;BME280;23859;50.672;7.164;2022-12-18T02:27:19;102050.69;;;-5.38;97.52
38054;BME280;23859;50.672;7.164;2022-12-18T02:29:55;102049.84;;;-5.44;98.33
38054;BME280;23859;50.672;7.164;2022-12-18T02:32:28;102055.03;;;-5.52;98.59
38054;BME280;23859;50.672;7.164;2022-12-18T02:34:57;102061.06;;;-5.60;99.22
38054;BME280;23859;50.672;7.164;2022-12-18T02:37:26;102071.38;;;-5.69;99.92
38054;BME280;23859;50.672;7.164;2022-12-18T02:39:55;102068.81;;;-5.63;100.00
38054;BME280;23859;50.672;7.164;2022-12-18T02:42:22;102075.72;;;-5.56;99.39
38054;BME280;23859;50.672;7.164;2022-12-18T02:44:50;102074.84;;;-5.54;99.57
38054;BME280;23859;50.672;7.164;2022-12-18T02:47:27;102055.03;;;-5.62;99.75
38054;BME280;23859;50.672;7.164;2022-12-18T02:50:10;102057.59;;;-5.61;100.00
38054;BME280;23859;50.672;7.164;2022-12-18T02:52:45;102065.38;;;-5.59;99.76
38054;BME280;23859;50.672;7.164;2022-12-18T02:57:49;102062.78;;;-5.64;99.33
38054;BME280;23859;50.672;7.164;2022-12-18T03:00:31;102060.19;;;-5.71;99.62
38054;BME280;23859;50.672;7.164;2022-12-18T03:03:10;102065.38;;;-5.71;99.47
38054;BME280;23859;50.672;7.164;2022-12-18T03:05:49;102059.38;;;-5.82;100.00
38054;BME280;23859;50.672;7.164;2022-12-18T03:08:20;102055.03;;;-5.80;100.00
38054;BME280;23859;50.672;7.164;2022-12-18T03:10:56;102051.59;;;-5.85;100.00
38054;BME280;23859;50.672;7.164;2022-12-18T03:13:37;102053.31;;;-5.84;100.00
38054;BME280;23859;50.672;7.164;2022-12-18T03:16:07;102055.06;;;-5.86;99.93
38054;BME280;23859;50.672;7.164;2022-12-18T03:19:03;102043.84;;;-6.01;100.00
38054;BME280;23859;50.672;7.164;2022-12-18T03:21:38;102052.47;;;-5.98;100.00
38054;BME280;23859;50.672;7.164;2022-12-18T03:24:08;102055.03;;;-6.07;100.00
38054;BME280;23859;50.672;7.164;2022-12-18T03:26:38;102055.06;;;-5.98;100.00
38054;BME280;23859;50.672;7.164;2022-12-18T03:29:14;102058.50;;;-5.99;100.00
38054;BME280;23859;50.672;7.164;2022-12-18T03:31:47;102048.16;;;-6.08;100.00
38054;BME280;23859;50.672;7.164;2022-12-18T03:34:40;102042.97;;;-6.12;100.00
38054;BME280;23859;50.672;7.164;2022-12-18T03:37:08;102046.41;;;-6.12;100.00
38054;BME280;23859;50.672;7.164;2022-12-18T03:39:35;102038.66;;;-6.18;100.00
38054;BME280;23859;50.672;7.164;2022-12-18T03:45:18;102030.03;;;-6.24;100.00
38054;BME280;23859;50.672;7.164;2022-12-18T03:47:57;102032.63;;;-6.26;100.00
38054;BME280;23859;50.672;7.164;2022-12-18T03:51:02;102032.63;;;-6.21;100.00
38054;BME280;23859;50.672;7.164;2022-12-18T03:53:36;102036.94;;;-6.17;100.00
38054;BME280;23859;50.672;7.164;2022-12-18T03:56:06;102037.78;;;-6.17;100.00
38054;BME280;23859;50.672;7.164;2022-12-18T03:58:35;102029.19;;;-6.04;100.00
38054;BME280;23859;50.672;7.164;2022-12-18T04:01:04;102028.34;;;-5.97;100.00
38054;BME280;23859;50.672;7.164;2022-12-18T04:03:32;102020.56;;;-6.00;100.00
38054;BME280;23859;50.672;7.164;2022-12-18T04:06:00;102018.84;;;-6.04;100.00
38054;BME280;23859;50.672;7.164;2022-12-18T04:08:27;102018.84;;;-6.07;100.00
38054;BME280;23859;50.672;7.164;2022-12-18T04:10:54;102017.97;;;-6.06;100.00
38054;BME280;23859;50.672;7.164;2022-12-18T04:13:30;102024.00;;;-5.95;100.00
38054;BME280;23859;50.672;7.164;2022-12-18T04:15:57;102020.59;;;-5.88;100.00
38054;BME280;23859;50.672;7.164;2022-12-18T04:18:23;102022.28;;;-5.78;100.00
38054;BME280;23859;50.672;7.164;2022-12-18T04:20:49;102013.66;;;-5.65;99.97
38054;BME280;23859;50.672;7.164;2022-12-18T04:23:15;102023.13;;;-5.70;99.58
38054;BME280;23859;50.672;7.164;2022-12-18T04:25:42;102006.72;;;-5.59;100.00
38054;BME280;23859;50.672;7.164;2022-12-18T04:28:08;102017.06;;;-5.41;99.60
38054;BME280;23859;50.672;7.164;2022-12-18T04:30:34;102004.94;;;-5.27;98.31
38054;BME280;23859;50.672;7.164;2022-12-18T04:33:00;102004.06;;;-5.26;97.83
38054;BME280;23859;50.672;7.164;2022-12-18T04:35:26;102012.72;;;-5.34;98.35
38054;BME280;23859;50.672;7.164;2022-12-18T04:37:52;102010.13;;;-5.37;97.95
38054;BME280;23859;50.672;7.164;2022-12-18T04:40:19;102017.03;;;-5.42;98.41
38054;BME280;23859;50.672;7.164;2022-12-18T04:42:45;102017.03;;;-5.39;97.81
38054;BME280;23859;50.672;7.164;2022-12-18T04:45:11;102008.41;;;-5.47;98.21
38054;BME280;23859;50.672;7.164;2022-12-18T04:47:37;101885.31;;;-6.02;97.50
38054;BME280;23859;50.672;7.164;2022-12-18T04:50:03;102013.59;;;-5.41;97.54
38054;BME280;23859;50.672;7.164;2022-12-18T04:52:29;102017.91;;;-5.45;97.27
38054;BME280;23859;50.672;7.164;2022-12-18T04:54:55;102017.06;;;-5.45;97.43
38054;BME280;23859;50.672;7.164;2022-12-18T04:57:21;102011.88;;;-5.51;97.97
38054;BME280;23859;50.672;7.164;2022-12-18T04:59:47;102011.88;;;-5.56;98.28
38054;BME280;23859;50.672;7.164;2022-12-18T05:02:13;102010.16;;;-5.49;97.85
38054;BME280;23859;50.672;7.164;2022-12-18T05:04:39;101998.13;;;-5.59;98.29
38054;BME280;23859;50.672;7.164;2022-12-18T05:07:05;102004.13;;;-5.63;98.88
38054;BME280;23859;50.672;7.164;2022-12-18T05:09:31;101998.09;;;-5.62;98.44
38054;BME280;23859;50.672;7.164;2022-12-18T05:11:57;101999.81;;;-5.49;98.37
38054;BME280;23859;50.672;7.164;2022-12-18T05:14:23;101994.63;;;-5.58;98.22
38054;BME280;23859;50.672;7.164;2022-12-18T05:16:49;101998.09;;;-5.56;98.30
38054;BME280;23859;50.672;7.164;2022-12-18T05:19:15;101993.78;;;-5.56;98.53
38054;BME280;23859;50.672;7.164;2022-12-18T05:21:41;101986.00;;;-5.50;98.03
38054;BME280;23859;50.672;7.164;2022-12-18T05:24:07;101986.88;;;-5.49;97.84
38054;BME280;23859;50.672;7.164;2022-12-18T05:26:33;101977.38;;;-5.43;97.54
38054;BME280;23859;50.672;7.164;2022-12-18T05:28:59;101980.81;;;-5.45;98.20
38054;BME280;23859;50.672;7.164;2022-12-18T05:31:25;101978.22;;;-5.42;98.01
38054;BME280;23859;50.672;7.164;2022-12-18T05:33:51;101980.78;;;-5.36;97.68
38054;BME280;23859;50.672;7.164;2022-12-18T05:36:17;101980.75;;;-5.29;98.13
38054;BME280;23859;50.672;7.164;2022-12-18T05:38:44;101985.09;;;-5.34;97.75
38054;BME280;23859;50.672;7.164;2022-12-18T05:41:10;101979.03;;;-5.23;97.69
38054;BME280;23859;50.672;7.164;2022-12-18T05:43:37;101985.06;;;-5.27;97.86
38054;BME280;23859;50.672;7.164;2022-12-18T05:46:11;101985.97;;;-5.28;97.95
38054;BME280;23859;50.672;7.164;2022-12-18T05:48:38;101996.28;;;-5.25;97.70
38054;BME280;23859;50.672;7.164;2022-12-18T05:51:15;101991.13;;;-5.30;98.01
38054;BME280;23859;50.672;7.164;2022-12-18T05:53:42;102000.63;;;-5.28;97.96
38054;BME280;23859;50.672;7.164;2022-12-18T05:56:13;101992.88;;;-5.31;98.16
38054;BME280;23859;50.672;7.164;2022-12-18T05:58:40;101999.75;;;-5.28;98.75
38054;BME280;23859;50.672;7.164;2022-12-18T06:01:16;102004.94;;;-5.23;97.79
38054;BME280;23859;50.672;7.164;2022-12-18T06:03:42;102012.66;;;-5.12;97.03
38054;BME280;23859;50.672;7.164;2022-12-18T06:06:23;102016.13;;;-5.12;97.62
38054;BME280;23859;50.672;7.164;2022-12-18T06:08:50;102012.66;;;-5.15;97.04
38054;BME280;23859;50.672;7.164;2022-12-18T06:11:20;102023.88;;;-5.21;97.43
38054;BME280;23859;50.672;7.164;2022-12-18T06:13:49;102019.56;;;-5.14;96.94
38054;BME280;23859;50.672;7.164;2022-12-18T06:16:15;102022.16;;;-5.16;96.78
38054;BME280;23859;50.672;7.164;2022-12-18T06:18:41;102043.75;;;-5.17;96.91
38054;BME280;23859;50.672;7.164;2022-12-18T06:21:07;102051.47;;;-5.08;96.75
38054;BME280;23859;50.672;7.164;2022-12-18T06:23:33;102033.41;;;-5.27;97.00
38054;BME280;23859;50.672;7.164;2022-12-18T06:26:04;102047.22;;;-5.31;97.74
38054;BME280;23859;50.672;7.164;2022-12-18T06:28:31;102052.38;;;-5.22;97.40
38054;BME280;23859;50.672;7.164;2022-12-18T06:30:57;102058.44;;;-5.36;97.97
38054;BME280;23859;50.672;7.164;2022-12-18T06:33:26;102049.81;;;-5.29;97.86
38054;BME280;23859;50.672;7.164;2022-12-18T06:35:54;102044.63;;;-5.24;97.38
38054;BME280;23859;50.672;7.164;2022-12-18T06:38:20;102058.41;;;-5.19;97.09
38054;BME280;23859;50.672;7.164;2022-12-18T06:40:47;102044.63;;;-5.25;97.46
38054;BME280;23859;50.672;7.164;2022-12-18T06:43:13;102036.00;;;-5.28;97.81
38054;BME280;23859;50.672;7.164;2022-12-18T06:45:39;102042.03;;;-5.24;97.29
38054;BME280;23859;50.672;7.164;2022-12-18T06:48:05;102032.53;;;-5.25;97.31
38054;BME280;23859;50.672;7.164;2022-12-18T06:50:31;102033.41;;;-5.31;97.63
38054;BME280;23859;50.672;7.164;2022-12-18T06:52:57;102038.56;;;-5.24;97.43
38054;BME280;23859;50.672;7.164;2022-12-18T06:55:23;102034.25;;;-5.21;97.50
38054;BME280;23859;50.672;7.164;2022-12-18T06:57:49;102041.13;;;-5.18;97.53
38054;BME280;23859;50.672;7.164;2022-12-18T07:00:15;102042.88;;;-5.19;97.31
38054;BME280;23859;50.672;7.164;2022-12-18T07:02:42;102039.41;;;-5.09;97.26
38054;BME280;23859;50.672;7.164;2022-12-18T07:05:08;102028.19;;;-5.03;97.07
38054;BME280;23859;50.672;7.164;2022-12-18T07:07:35;102027.28;;;-5.04;96.80
38054;BME280;23859;50.672;7.164;2022-12-18T07:10:01;102032.50;;;-5.07;96.97
38054;BME280;23859;50.672;7.164;2022-12-18T07:12:27;102025.50;;;-4.91;96.48
38054;BME280;23859;50.672;7.164;2022-12-18T07:14:53;102027.31;;;-5.01;96.76
38054;BME280;23859;50.672;7.164;2022-12-18T07:17:19;102024.66;;;-4.96;96.70
38054;BME280;23859;50.672;7.164;2022-12-18T07:19:45;102036.78;;;-5.01;97.15
38054;BME280;23859;50.672;7.164;2022-12-18T07:22:11;102040.22;;;-4.96;96.84
38054;BME280;23859;50.672;7.164;2022-12-18T07:24:38;102042.75;;;-4.83;96.77
38054;BME280;23859;50.672;7.164;2022-12-18T07:27:04;102044.50;;;-4.88;96.54
38054;BME280;23859;50.672;7.164;2022-12-18T07:29:30;102054.03;;;-4.93;96.67
38054;BME280;23859;50.672;7.164;2022-12-18T07:31:56;102044.50;;;-4.88;96.52
38054;BME280;23859;50.672;7.164;2022-12-18T07:34:22;102040.22;;;-4.93;96.79
38054;BME280;23859;50.672;7.164;2022-12-18T07:36:48;102038.50;;;-4.90;96.42
38054;BME280;23859;50.672;7.164;2022-12-18T07:39:14;102037.59;;;-4.86;96.21
38054;BME280;23859;50.672;7.164;2022-12-18T07:41:41;102033.28;;;-4.88;96.31
38054;BME280;23859;50.672;7.164;2022-12-18T07:44:30;102035.00;;;-4.86;96.24
38054;BME280;23859;50.672;7.164;2022-12-18T07:46:56;102034.09;;;-4.76;95.69
38054;BME280;23859;50.672;7.164;2022-12-18T07:49:22;102030.66;;;-4.84;96.15
38054;BME280;23859;50.672;7.164;2022-12-18T07:51:48;102033.25;;;-4.76;95.58
38054;BME280;23859;50.672;7.164;2022-12-18T07:54:14;102034.97;;;-4.78;95.59
38054;BME280;23859;50.672;7.164;2022-12-18T07:56:41;102033.28;;;-4.85;95.83
38054;BME280;23859;50.672;7.164;2022-12-18T07:59:07;102037.59;;;-4.86;96.36
38054;BME280;23859;50.672;7.164;2022-12-18T08:01:33;102042.69;;;-4.69;95.65
38054;BME280;23859;50.672;7.164;2022-12-18T08:04:00;102028.03;;;-4.69;95.55
38054;BME280;23859;50.672;7.164;2022-12-18T08:06:26;102013.31;;;-4.67;95.64
38054;BME280;23859;50.672;7.164;2022-12-18T08:08:54;102009.91;;;-4.69;95.50
38054;BME280;23859;50.672;7.164;2022-12-18T08:11:20;102002.03;;;-4.54;94.71
38054;BME280;23859;50.672;7.164;2022-12-18T08:13:47;101987.38;;;-4.58;94.56
38054;BME280;23859;50.672;7.164;2022-12-18T08:16:13;101992.56;;;-4.61;95.02
38054;BME280;23859;50.672;7.164;2022-12-18T08:18:39;101981.31;;;-4.59;94.97
38054;BME280;23859;50.672;7.164;2022-12-18T08:21:13;101976.09;;;-4.48;94.43
38054;BME280;23859;50.672;7.164;2022-12-18T08:23:39;101971.72;;;-4.43;94.36
38054;BME280;23859;50.672;7.164;2022-12-18T08:26:06;101967.38;;;-4.41;93.94
38054;BME280;23859;50.672;7.164;2022-12-18T08:28:32;101965.59;;;-4.29;93.20
38054;BME280;23859;50.672;7.164;2022-12-18T08:30:58;101973.25;;;-4.15;92.76
38054;BME280;23859;50.672;7.164;2022-12-18T08:33:25;101973.22;;;-4.09;92.64
38054;BME280;23859;50.672;7.164;2022-12-18T08:35:52;101972.34;;;-4.11;92.69
38054;BME280;23859;50.672;7.164;2022-12-18T08:38:18;101968.84;;;-4.06;92.06
38054;BME280;23859;50.672;7.164;2022-12-18T08:40:44;101972.19;;;-3.91;91.24
38054;BME280;23859;50.672;7.164;2022-12-18T08:43:11;101950.34;;;-3.69;90.74
38054;BME280;23859;50.672;7.164;2022-12-18T08:45:55;101954.28;;;-3.32;88.32
38054;BME280;23859;50.672;7.164;2022-12-18T08:48:21;101954.88;;;-3.09;87.24
38054;BME280;23859;50.672;7.164;2022-12-18T08:50:55;101958.28;;;-3.07;86.84
38054;BME280;23859;50.672;7.164;2022-12-18T08:53:21;101958.41;;;-3.16;87.13
38054;BME280;23859;50.672;7.164;2022-12-18T08:55:47;101954.06;;;-2.51;84.66
38054;BME280;23859;50.672;7.164;2022-12-18T08:58:13;101959.53;;;-2.10;81.22
38054;BME280;23859;50.672;7.164;2022-12-18T09:00:39;101950.13;;;-1.69;80.23
38054;BME280;23859;50.672;7.164;2022-12-18T09:03:05;101954.19;;;-2.03;80.04
38054;BME280;23859;50.672;7.164;2022-12-18T09:05:36;101945.59;;;-2.08;80.92
38054;BME280;23859;50.672;7.164;2022-12-18T09:08:02;101957.16;;;-2.27;82.59
38054;BME280;23859;50.672;7.164;2022-12-18T09:10:28;101953.47;;;-2.69;84.25
38054;BME280;23859;50.672;7.164;2022-12-18T09:12:54;101954.16;;;-2.56;84.42
38054;BME280;23859;50.672;7.164;2022-12-18T09:15:22;101948.44;;;-2.23;83.54
38054;BME280;23859;50.672;7.164;2022-12-18T09:17:48;101953.66;;;-2.23;82.86
38054;BME280;23859;50.672;7.164;2022-12-18T09:20:16;101944.81;;;-2.13;82.29
38054;BME280;23859;50.672;7.164;2022-12-18T09:22:42;101945.31;;;-1.90;81.45
38054;BME280;23859;50.672;7.164;2022-12-18T09:25:08;101942.69;;;-1.90;80.22
38054;BME280;23859;50.672;7.164;2022-12-18T09:27:35;101950.53;;;-1.93;80.93
38054;BME280;23859;50.672;7.164;2022-12-18T09:30:02;101944.97;;;-1.72;80.24
38054;BME280;23859;50.672;7.164;2022-12-18T09:32:28;101945.19;;;-1.37;79.02
38054;BME280;23859;50.672;7.164;2022-12-18T09:34:54;101937.91;;;-1.22;78.77
38054;BME280;23859;50.672;7.164;2022-12-18T09:37:20;101939.69;;;-0.82;75.06
38054;BME280;23859;50.672;7.164;2022-12-18T09:39:46;101941.66;;;-0.54;73.94
38054;BME280;23859;50.672;7.164;2022-12-18T09:42:18;101919.59;;;0.29;71.43
38054;BME280;23859;50.672;7.164;2022-12-18T09:44:50;101908.13;;;0.64;69.64
38054;BME280;23859;50.672;7.164;2022-12-18T09:47:25;101917.53;;;-0.27;70.70
38054;BME280;23859;50.672;7.164;2022-12-18T09:49:59;101907.56;;;-0.11;72.27
38054;BME280;23859;50.672;7.164;2022-12-18T09:52:34;101916.38;;;-0.15;71.99
38054;BME280;23859;50.672;7.164;2022-12-18T09:55:12;101922.53;;;-0.54;74.41
38054;BME280;23859;50.672;7.164;2022-12-18T09:57:45;101905.78;;;-0.82;75.61
38054;BME280;23859;50.672;7.164;2022-12-18T10:00:22;101903.78;;;-1.10;77.19
38054;BME280;23859;50.672;7.164;2022-12-18T10:02:50;101902.63;;;-1.36;78.46
38054;BME280;23859;50.672;7.164;2022-12-18T10:08:18;101894.78;;;-1.35;78.67
38054;BME280;23859;50.672;7.164;2022-12-18T10:10:53;101899.63;;;-1.61;79.88
38054;BME280;23859;50.672;7.164;2022-12-18T10:13:39;101905.09;;;-1.76;80.63
38054;BME280;23859;50.672;7.164;2022-12-18T10:16:22;101908.66;;;-1.80;81.59
38054;BME280;23859;50.672;7.164;2022-12-18T10:19:07;101893.94;;;-1.82;82.15
38054;BME280;23859;50.672;7.164;2022-12-18T10:27:15;101909.69;;;-1.43;80.41
38054;BME280;23859;50.672;7.164;2022-12-18T10:29:43;101897.50;;;-1.41;80.12
38054;BME280;23859;50.672;7.164;2022-12-18T10:32:22;101885.34;;;-1.00;77.94
38054;BME280;23859;50.672;7.164;2022-12-18T10:34:50;101883.66;;;-0.65;76.41
38054;BME280;23859;50.672;7.164;2022-12-18T10:37:19;101887.03;;;-0.60;76.45
38054;BME280;23859;50.672;7.164;2022-12-18T10:39:46;101890.59;;;-0.65;76.51
38054;BME280;23859;50.672;7.164;2022-12-18T10:42:30;101890.69;;;-1.06;78.78
38054;BME280;23859;50.672;7.164;2022-12-18T10:45:11;101875.78;;;-1.01;79.09
38054;BME280;23859;50.672;7.164;2022-12-18T10:47:48;101887.56;;;-1.23;79.01
38054;BME280;23859;50.672;7.164;2022-12-18T10:50:28;101867.63;;;-1.25;79.79
38054;BME280;23859;50.672;7.164;2022-12-18T10:52:56;101872.25;;;-1.37;80.99
38054;BME280;23859;50.672;7.164;2022-12-18T10:55:23;101866.75;;;-1.26;81.21
38054;BME280;23859;50.672;7.164;2022-12-18T10:57:51;101868.75;;;-1.36;80.63
38054;BME280;23859;50.672;7.164;2022-12-18T11:00:29;101877.38;;;-1.34;80.95
38054;BME280;23859;50.672;7.164;2022-12-18T11:02:56;101861.13;;;-1.47;81.50
38054;BME280;23859;50.672;7.164;2022-12-18T11:05:33;101854.50;;;-1.21;81.04
38054;BME280;23859;50.672;7.164;2022-12-18T11:08:00;101862.25;;;-1.18;79.82
38054;BME280;23859;50.672;7.164;2022-12-18T11:10:36;101876.88;;;-1.11;80.06
38054;BME280;23859;50.672;7.164;2022-12-18T11:13:22;101867.78;;;-1.33;81.25
38054;BME280;23859;50.672;7.164;2022-12-18T11:15:49;101857.13;;;-1.22;81.50
38054;BME280;23859;50.672;7.164;2022-12-18T11:18:19;101849.94;;;-1.11;80.49
38054;BME280;23859;50.672;7.164;2022-12-18T11:20:52;101854.22;;;-1.09;80.32
38054;BME280;23859;50.672;7.164;2022-12-18T11:23:19;101847.50;;;-1.19;80.82
38054;BME280;23859;50.672;7.164;2022-12-18T11:25:57;101837.78;;;-1.12;81.32
38054;BME280;23859;50.672;7.164;2022-12-18T11:28:36;101843.88;;;-1.12;81.13
38054;BME280;23859;50.672;7.164;2022-12-18T11:31:18;101851.13;;;-1.26;82.33
38054;BME280;23859;50.672;7.164;2022-12-18T11:33:54;101817.81;;;-1.12;81.52
38054;BME280;23859;50.672;7.164;2022-12-18T11:36:22;101840.84;;;-1.32;81.97
38054;BME280;23859;50.672;7.164;2022-12-18T11:38:51;101842.13;;;-1.10;81.39
38054;BME280;23859;50.672;7.164;2022-12-18T11:41:41;101857.94;;;-1.19;82.03
38054;BME280;23859;50.672;7.164;2022-12-18T11:44:41;101858.84;;;-1.21;82.22
38054;BME280;23859;50.672;7.164;2022-12-18T11:47:34;101846.53;;;-1.15;82.09
38054;BME280;23859;50.672;7.164;2022-12-18T11:50:12;101842.28;;;-1.19;82.38
38054;BME280;23859;50.672;7.164;2022-12-18T11:52:40;101834.25;;;-1.08;82.02
38054;BME280;23859;50.672;7.164;2022-12-18T11:55:27;101835.69;;;-1.34;82.52
38054;BME280;23859;50.672;7.164;2022-12-18T11:58:12;101826.78;;;-1.25;82.49
38054;BME280;23859;50.672;7.164;2022-12-18T12:00:56;101823.91;;;-1.13;82.83
38054;BME280;23859;50.672;7.164;2022-12-18T12:09:31;101808.56;;;-1.26;83.67
38054;BME280;23859;50.672;7.164;2022-12-18T12:15:29;101801.13;;;-1.42;84.67
38054;BME280;23859;50.672;7.164;2022-12-18T12:18:30;101792.28;;;-1.34;84.68
38054;BME280;23859;50.672;7.164;2022-12-18T12:21:06;101792.81;;;-1.20;83.94
38054;BME280;23859;50.672;7.164;2022-12-18T12:24:09;101798.44;;;-1.39;84.75
38054;BME280;23859;50.672;7.164;2022-12-18T12:29:45;101777.47;;;-1.33;85.04
38054;BME280;23859;50.672;7.164;2022-12-18T12:32:35;101768.56;;;-1.24;85.03
38054;BME280;23859;50.672;7.164;2022-12-18T12:35:25;101783.53;;;-1.32;85.37
38054;BME280;23859;50.672;7.164;2022-12-18T12:38:11;101761.75;;;-1.31;85.81
38054;BME280;23859;50.672;7.164;2022-12-18T12:40:46;101786.19;;;-1.34;85.44
38054;BME280;23859;50.672;7.164;2022-12-18T12:43:20;101766.75;;;-1.20;85.13
38054;BME280;23859;50.672;7.164;2022-12-18T12:46:08;101763.13;;;-1.15;84.75
38054;BME280;23859;50.672;7.164;2022-12-18T12:48:51;101759.50;;;-1.08;84.64
38054;BME280;23859;50.672;7.164;2022-12-18T12:51:25;101764.19;;;-1.22;85.20
38054;BME280;23859;50.672;7.164;2022-12-18T12:53:53;101751.47;;;-0.99;84.76
38054;BME280;23859;50.672;7.164;2022-12-18T12:56:21;101758.84;;;-1.16;84.55
38054;BME280;23859;50.672;7.164;2022-12-18T13:04:03;101741.72;;;-0.91;85.11
38054;BME280;23859;50.672;7.164;2022-12-18T13:06:52;101732.06;;;-0.87;83.73
38054;BME280;23859;50.672;7.164;2022-12-18T13:09:19;101736.34;;;-0.85;83.65
38054;BME280;23859;50.672;7.164;2022-12-18T13:11:46;101740.88;;;-0.93;83.92
38054;BME280;23859;50.672;7.164;2022-12-18T13:14:35;101743.16;;;-0.78;83.44
38054;BME280;23859;50.672;7.164;2022-12-18T13:20:13;101752.66;;;-0.77;83.39
38054;BME280;23859;50.672;7.164;2022-12-18T13:22:45;101750.00;;;-0.74;83.09
38054;BME280;23859;50.672;7.164;2022-12-18T13:28:01;101758.00;;;-0.83;83.24
38054;BME280;23859;50.672;7.164;2022-12-18T13:38:35;101760.75;;;-0.87;83.53
38054;BME280;23859;50.672;7.164;2022-12-18T13:43:45;101767.88;;;-0.95;83.81
38054;BME280;23859;50.672;7.164;2022-12-18T13:46:42;101765.28;;;-0.94;83.93
38054;BME280;23859;50.672;7.164;2022-12-18T13:51:59;101761.88;;;-0.97;84.58
38054;BME280;23859;50.672;7.164;2022-12-18T13:54:30;101755.81;;;-0.99;84.70
38054;BME280;23859;50.672;7.164;2022-12-18T13:56:59;101763.56;;;-0.95;84.03
38054;BME280;23859;50.672;7.164;2022-12-18T13:59:36;101753.06;;;-0.93;84.39
38054;BME280;23859;50.672;7.164;2022-12-18T14:02:14;101638.47;;;-1.67;84.61
38054;BME280;23859;50.672;7.164;2022-12-18T14:04:41;101759.28;;;-0.99;84.71